Time;durP1;ratioP1;P1;durP2;ratioP2;P2;SDS_P1;SDS_P2;PMS_P1;PMS_P2;Temp;Humidity;BMP_temperature;BMP_pressure;BME280_temperature;BME280_humidity;BME280_pressure;Samples;Min_cycle;Max_cycle;Signal;HPM_P1;HPM_P2
2021/03/13 00:02:45;;;;;;;5.82;1.73;;;;;;;-3.40;46.86;98570.69;10547462;28;20585;-51
2021/03/13 00:07:47;;;;;;;4.55;1.92;;;;;;;-3.41;47.06;98563.88;10547369;28;20217;-51
2021/03/13 00:12:49;;;;;;;11.57;2.25;;;;;;;-3.42;47.13;98567.34;10547219;28;20519;-49
2021/03/13 00:17:53;;;;;;;5.18;2.50;;;;;;;-3.44;46.91;98556.31;10552465;28;20055;-56
2021/03/13 00:22:56;;;;;;;6.75;2.13;;;;;;;-3.43;47.11;98559.72;10549090;28;20139;-51
2021/03/13 00:27:59;;;;;;;3.35;1.42;;;;;;;-3.37;47.16;98551.72;10546267;28;20052;-49
2021/03/13 00:33:04;;;;;;;5.32;1.85;;;;;;;-3.41;47.35;98548.47;10546623;28;20040;-52
2021/03/13 00:38:08;;;;;;;7.05;1.98;;;;;;;-3.31;46.84;98547.13;10548097;28;20537;-49
2021/03/13 00:43:11;;;;;;;5.95;2.42;;;;;;;-3.20;46.78;98544.06;10545791;28;20058;-51
2021/03/13 00:48:14;;;;;;;6.38;2.25;;;;;;;-3.17;47.04;98535.34;10524185;28;20052;-71
2021/03/13 00:53:16;;;;;;;2.97;1.40;;;;;;;-3.16;47.35;98537.03;10515335;28;20037;-52
2021/03/13 00:58:18;;;;;;;5.40;2.13;;;;;;;-3.29;47.85;98537.63;10503735;28;20063;-53
2021/03/13 01:03:30;;;;;;;7.20;2.70;;;;;;;-3.34;48.76;98537.00;10502475;28;20048;-57
2021/03/13 01:08:33;;;;;;;2.73;1.40;;;;;;;-3.27;48.71;98540.09;10504659;28;20121;-51
2021/03/13 01:13:42;;;;;;;7.82;3.30;;;;;;;-3.35;49.24;98537.91;10504688;28;20048;-51
2021/03/13 01:18:45;;;;;;;6.50;2.38;;;;;;;-3.33;49.03;98537.81;10517716;28;20048;-49
2021/03/13 01:23:53;;;;;;;6.60;2.13;;;;;;;-3.29;49.70;98540.19;10547149;28;20139;-58
2021/03/13 01:28:59;;;;;;;10.32;2.33;;;;;;;-3.28;49.88;98538.44;10552445;28;20048;-54
2021/03/13 01:34:23;;;;;;;8.88;2.60;;;;;;;-3.31;50.62;98538.59;10546858;28;20194;-52
2021/03/13 01:39:34;;;;;;;4.68;1.83;;;;;;;-3.38;50.61;98532.91;10544216;28;20044;-52
2021/03/13 01:44:36;;;;;;;7.80;2.85;;;;;;;-3.32;51.02;98531.78;10543056;28;20047;-49
2021/03/13 01:49:39;;;;;;;4.15;1.92;;;;;;;-3.31;51.33;98529.13;10543759;28;20059;-52
2021/03/13 01:54:41;;;;;;;2.90;1.65;;;;;;;-3.32;51.97;98529.22;10542987;28;20048;-51
2021/03/13 01:59:43;;;;;;;9.38;2.97;;;;;;;-3.38;51.78;98527.78;10541106;28;20105;-52
2021/03/13 02:04:45;;;;;;;12.75;4.13;;;;;;;-3.34;52.00;98523.31;10542943;28;20048;-50
2021/03/13 02:10:02;;;;;;;10.32;3.53;;;;;;;-3.30;52.30;98524.81;10544588;28;20040;-58
2021/03/13 02:15:08;;;;;;;;;;;;;;;-3.26;52.09;98522.06;10545586;28;20059;-50
2021/03/13 02:20:28;;;;;;;7.38;2.92;;;;;;;-3.38;52.50;98517.50;10527572;28;19928;-51
2021/03/13 02:25:51;;;;;;;10.60;3.75;;;;;;;-3.33;52.60;98525.78;10549660;28;20055;-50
2021/03/13 02:31:00;;;;;;;4.88;1.77;;;;;;;-3.28;52.52;98525.59;10584199;28;20050;-50
2021/03/13 02:36:06;;;;;;;10.07;4.03;;;;;;;-3.31;53.14;98518.84;10582796;28;20058;-52
2021/03/13 02:41:18;;;;;;;7.28;2.63;;;;;;;-3.28;53.38;98521.28;10584679;28;20107;-52
2021/03/13 02:46:24;;;;;;;6.20;3.08;;;;;;;-3.31;54.12;98524.00;10588409;28;20442;-52
2021/03/13 02:51:28;;;;;;;6.82;2.17;;;;;;;-3.28;54.16;98518.72;10519511;28;20075;-49
2021/03/13 02:56:34;;;;;;;8.10;3.30;;;;;;;-3.32;54.09;98530.06;10498352;28;20056;-49
2021/03/13 03:01:40;;;;;;;6.20;2.90;;;;;;;-3.37;54.47;98529.44;10500654;28;20076;-52
2021/03/13 03:06:47;;;;;;;6.82;1.77;;;;;;;-3.35;54.36;98522.50;10501839;28;20551;-52
2021/03/13 03:11:50;;;;;;;9.13;3.83;;;;;;;-3.41;54.70;98521.94;10498317;28;20037;-55
2021/03/13 03:16:57;;;;;;;;;;;;;;;-3.45;55.49;98518.66;10498328;28;20063;-49
2021/03/13 03:22:04;;;;;;;8.52;2.05;;;;;;;-3.44;54.95;98517.78;10498842;28;19931;-51
2021/03/13 03:27:08;;;;;;;;;;;;;;;-3.45;55.77;98516.09;10497523;28;20179;-49
2021/03/13 03:32:15;;;;;;;6.10;3.47;;;;;;;-3.40;55.36;98519.28;10514468;28;20027;-52
2021/03/13 03:37:18;;;;;;;8.48;3.95;;;;;;;-3.38;55.36;98525.19;10497226;28;20049;-50
2021/03/13 03:42:20;;;;;;;7.00;3.58;;;;;;;-3.38;55.61;98527.78;10497914;28;20134;-50
2021/03/13 03:47:25;;;;;;;;;;;;;;;-3.30;55.62;98520.50;10498237;28;20135;-54
2021/03/13 03:52:36;;;;;;;7.15;2.33;;;;;;;-3.29;55.49;98517.06;10519068;28;19928;-49
2021/03/13 03:57:40;;;;;;;7.28;2.97;;;;;;;-3.27;55.64;98516.97;10503501;28;20393;-50
2021/03/13 04:02:43;;;;;;;12.27;3.97;;;;;;;-3.26;55.86;98523.78;10500794;28;20054;-49
2021/03/13 04:07:46;;;;;;;11.68;4.30;;;;;;;-3.28;56.23;98525.59;10498106;28;20603;-52
2021/03/13 04:12:48;;;;;;;7.25;2.75;;;;;;;-3.26;56.54;98522.06;10497361;28;20052;-50
2021/03/13 04:17:51;;;;;;;9.68;3.17;;;;;;;-3.28;56.57;98518.72;10504288;28;20055;-52
2021/03/13 04:22:54;;;;;;;7.53;2.88;;;;;;;-3.26;56.84;98516.91;10546847;28;20044;-53
2021/03/13 04:27:55;;;;;;;14.50;3.70;;;;;;;-3.17;56.85;98530.22;10547309;28;20460;-49
2021/03/13 04:32:59;;;;;;;6.50;2.38;;;;;;;-3.17;56.84;98525.06;10546674;28;20092;-52
2021/03/13 04:38:02;;;;;;;5.43;2.28;;;;;;;-3.17;57.22;98527.63;10545475;28;20885;-51
2021/03/13 04:43:04;;;;;;;13.27;4.70;;;;;;;-3.15;57.90;98524.09;10546003;28;20468;-50
2021/03/13 04:48:08;;;;;;;6.88;2.53;;;;;;;-3.10;57.83;98531.59;10546381;28;20530;-50
2021/03/13 04:53:10;;;;;;;7.22;2.47;;;;;;;-3.05;58.00;98525.34;10546370;28;20051;-52
2021/03/13 04:58:11;;;;;;;12.25;3.45;;;;;;;-2.92;58.00;98525.56;10547124;28;20056;-50
2021/03/13 05:03:15;;;;;;;10.07;4.15;;;;;;;-2.88;58.20;98527.06;10546841;28;20052;-52
2021/03/13 05:08:16;;;;;;;5.82;2.92;;;;;;;-2.93;58.25;98517.91;10545664;28;20048;-50
2021/03/13 05:13:18;;;;;;;15.80;4.85;;;;;;;-2.89;58.78;98519.44;10544857;28;20050;-51
2021/03/13 05:18:21;;;;;;;5.13;2.10;;;;;;;-2.73;58.38;98510.03;10544451;28;20405;-50
2021/03/13 05:23:22;;;;;;;4.77;1.93;;;;;;;-2.64;58.28;98508.75;10544792;28;20084;-50
2021/03/13 05:28:24;;;;;;;12.00;4.05;;;;;;;-2.51;58.13;98522.66;10544334;28;20440;-53
2021/03/13 05:33:27;;;;;;;9.05;3.00;;;;;;;-2.41;57.98;98523.00;10541018;28;20071;-52
2021/03/13 05:38:28;;;;;;;7.55;3.25;;;;;;;-2.40;57.86;98516.94;10502941;28;20049;-52
2021/03/13 05:43:33;;;;;;;6.63;2.97;;;;;;;-2.32;58.31;98525.94;10503605;28;20040;-55
2021/03/13 05:48:36;;;;;;;9.50;3.83;;;;;;;-2.25;57.99;98516.16;10501835;28;20442;-52
2021/03/13 05:53:40;;;;;;;7.03;3.30;;;;;;;-2.16;57.71;98535.44;10506406;28;20097;-49
2021/03/13 05:58:42;;;;;;;6.15;3.03;;;;;;;-2.09;57.88;98529.91;10503458;28;20048;-50
2021/03/13 06:03:45;;;;;;;8.40;3.28;;;;;;;-2.00;57.75;98528.59;10502138;28;20135;-55
2021/03/13 06:08:48;;;;;;;12.93;3.78;;;;;;;-1.90;57.66;98524.63;10504525;28;20056;-50
2021/03/13 06:13:50;;;;;;;11.55;4.18;;;;;;;-1.82;57.48;98528.53;10500582;28;20435;-52
2021/03/13 06:18:53;;;;;;;8.38;3.60;;;;;;;-1.82;57.80;98523.38;10516770;28;20063;-56
2021/03/13 06:24:00;;;;;;;5.28;2.53;;;;;;;-1.73;58.01;98528.03;10546635;28;20044;-49
2021/03/13 06:29:14;;;;;;;10.77;3.78;;;;;;;-1.52;57.82;98534.59;10547914;28;20080;-50
2021/03/13 06:34:26;;;;;;;10.57;3.80;;;;;;;-1.47;57.57;98542.09;10541907;28;20043;-50
2021/03/13 06:39:38;;;;;;;6.18;2.10;;;;;;;-1.35;58.05;98548.31;10541462;28;20392;-50
2021/03/13 06:44:53;;;;;;;10.88;4.10;;;;;;;-1.27;57.98;98540.97;10541470;28;20090;-49
2021/03/13 06:50:08;;;;;;;13.65;5.20;;;;;;;-1.25;58.11;98539.97;10541567;28;20040;-53
2021/03/13 06:55:16;;;;;;;11.00;3.50;;;;;;;-0.99;58.58;98541.09;10541614;28;20051;-53
2021/03/13 07:00:29;;;;;;;13.32;5.25;;;;;;;-0.79;58.17;98541.72;10546607;28;20043;-49
2021/03/13 07:05:32;;;;;;;14.00;5.97;;;;;;;-0.75;58.25;98546.59;10550964;28;20131;-53
2021/03/13 07:10:34;;;;;;;13.10;5.32;;;;;;;-0.61;57.86;98548.41;10519381;28;20084;-50
2021/03/13 07:15:36;;;;;;;11.85;5.22;;;;;;;-0.62;58.29;98546.72;10499293;28;20072;-52
2021/03/13 07:20:39;;;;;;;9.18;4.13;;;;;;;-0.49;58.22;98544.28;10528501;28;20079;-50
2021/03/13 07:25:41;;;;;;;10.93;5.32;;;;;;;-0.44;58.64;98544.00;10541087;28;20044;-52
2021/03/13 07:30:43;;;;;;;11.20;4.65;;;;;;;-0.33;58.45;98544.22;10543550;28;20205;-49
2021/03/13 07:35:51;;;;;;;9.93;3.90;;;;;;;-0.17;58.65;98542.38;10540280;28;20063;-50
2021/03/13 07:40:54;;;;;;;13.27;4.55;;;;;;;-0.02;58.19;98544.03;10519520;28;20041;-52
2021/03/13 07:45:58;;;;;;;11.75;5.18;;;;;;;0.03;58.31;98535.16;10498995;28;20052;-49
2021/03/13 07:51:01;;;;;;;12.25;5.45;;;;;;;0.04;57.98;98539.44;10498722;28;20477;-50
2021/03/13 07:56:05;;;;;;;10.67;4.07;;;;;;;0.13;58.53;98538.88;10513568;28;20060;-53
2021/03/13 08:01:07;;;;;;;7.13;3.40;;;;;;;0.23;58.54;98540.78;10506544;28;20131;-49
2021/03/13 08:06:12;;;;;;;11.13;5.07;;;;;;;0.11;58.77;98551.03;10506077;28;20045;-50
2021/03/13 08:11:14;;;;;;;12.93;4.80;;;;;;;0.07;58.93;98534.06;10505706;28;20060;-52
2021/03/13 08:16:19;;;;;;;10.43;4.70;;;;;;;0.18;59.35;98529.06;10507755;28;20044;-52
2021/03/13 08:21:41;;;;;;;7.45;3.10;;;;;;;0.23;59.55;98524.44;10548679;28;20151;-50
2021/03/13 08:26:59;;;;;;;7.97;3.65;;;;;;;0.17;60.08;98528.22;10549778;28;20143;-52
2021/03/13 08:32:01;;;;;;;10.30;4.60;;;;;;;0.28;60.36;98531.91;10547743;28;20058;-52
2021/03/13 08:37:16;;;;;;;7.57;2.92;;;;;;;0.34;60.06;98528.94;10550043;28;20054;-53
2021/03/13 08:42:32;;;;;;;12.38;5.07;;;;;;;0.36;60.11;98533.09;10547755;28;20044;-50
2021/03/13 08:47:42;;;;;;;8.98;3.03;;;;;;;0.41;60.05;98525.88;10523945;28;20389;-49
2021/03/13 08:52:45;;;;;;;10.65;4.28;;;;;;;0.42;60.39;98532.72;10504371;28;20041;-51
2021/03/13 08:57:48;;;;;;;10.55;4.63;;;;;;;0.44;60.51;98541.22;10503417;28;20078;-53
2021/03/13 09:02:50;;;;;;;4.88;2.05;;;;;;;0.63;60.42;98540.06;10503701;28;20495;-52
2021/03/13 09:07:55;;;;;;;9.88;3.05;;;;;;;0.73;60.77;98535.94;10503653;28;20136;-52
2021/03/13 09:12:57;;;;;;;11.60;5.10;;;;;;;0.83;60.89;98531.03;10504326;28;20044;-54
2021/03/13 09:17:59;;;;;;;8.02;4.63;;;;;;;0.96;61.04;98531.09;10503670;28;20154;-60
2021/03/13 09:23:02;;;;;;;8.48;3.03;;;;;;;1.00;60.69;98532.53;10506951;28;20489;-55
2021/03/13 09:28:05;;;;;;;8.35;3.80;;;;;;;0.96;60.04;98531.91;10506674;28;20135;-53
2021/03/13 09:33:07;;;;;;;8.45;3.08;;;;;;;1.01;60.80;98526.41;10505040;28;20503;-53
2021/03/13 09:38:10;;;;;;;5.28;2.75;;;;;;;1.02;60.87;98535.88;10504397;28;20135;-52
2021/03/13 09:43:11;;;;;;;7.67;2.83;;;;;;;1.02;60.95;98536.69;10503273;28;20049;-53
2021/03/13 09:48:16;;;;;;;15.90;5.55;;;;;;;1.15;60.92;98536.72;10502218;28;20485;-52
2021/03/13 09:53:19;;;;;;;10.95;3.75;;;;;;;1.29;60.68;98534.06;10500772;28;20508;-49
2021/03/13 09:58:21;;;;;;;9.73;2.75;;;;;;;1.35;60.51;98536.22;10501877;28;20048;-51
2021/03/13 10:03:23;;;;;;;8.45;4.43;;;;;;;1.38;60.44;98538.59;10501001;28;20044;-52
2021/03/13 10:08:36;;;;;;;11.27;4.07;;;;;;;1.35;59.78;98533.63;10503467;28;20485;-50
2021/03/13 10:13:40;;;;;;;11.50;5.32;;;;;;;1.37;59.96;98528.38;10505668;28;20050;-59
2021/03/13 10:18:42;;;;;;;8.35;3.10;;;;;;;1.47;60.03;98541.53;10537106;28;20074;-50
2021/03/13 10:23:45;;;;;;;8.65;3.58;;;;;;;1.38;59.78;98528.25;10499395;28;20080;-54
2021/03/13 10:28:48;;;;;;;7.30;2.78;;;;;;;1.34;59.75;98520.81;10502752;28;20052;-50
2021/03/13 10:33:51;;;;;;;6.75;3.00;;;;;;;1.50;60.34;98530.97;10504659;28;20047;-52
2021/03/13 10:38:57;;;;;;;8.10;3.28;;;;;;;1.55;60.18;98521.97;10528442;28;20128;-52
2021/03/13 10:43:59;;;;;;;9.25;4.25;;;;;;;1.68;60.64;98511.59;10508105;28;20044;-52
2021/03/13 10:49:03;;;;;;;13.82;5.60;;;;;;;1.73;61.05;98514.72;10519118;28;20051;-56
2021/03/13 10:54:20;;;;;;;6.72;3.50;;;;;;;1.91;61.20;98509.19;10508670;28;20045;-50
2021/03/13 10:59:31;;;;;;;10.98;5.63;;;;;;;1.99;61.04;98510.31;10544539;28;20051;-50
2021/03/13 11:04:33;;;;;;;11.77;6.00;;;;;;;1.96;60.90;98497.56;10545279;28;20210;-53
2021/03/13 11:09:36;;;;;;;10.23;4.32;;;;;;;2.03;61.06;98505.75;10542547;28;20492;-49
2021/03/13 11:14:38;;;;;;;10.93;5.22;;;;;;;1.94;60.64;98494.28;10543061;28;20052;-53
2021/03/13 11:19:40;;;;;;;11.13;3.97;;;;;;;1.93;61.29;98499.56;10543583;28;20055;-65
2021/03/13 11:24:43;;;;;;;9.10;4.10;;;;;;;1.91;60.95;98491.03;10545441;28;20168;-49
2021/03/13 11:29:44;;;;;;;14.82;6.55;;;;;;;2.02;61.75;98504.94;10542266;28;20043;-53
2021/03/13 11:34:46;;;;;;;8.65;4.25;;;;;;;2.02;61.67;98511.88;10539990;28;20040;-51
2021/03/13 11:39:50;;;;;;;10.65;5.47;;;;;;;1.97;61.23;98494.06;10540407;28;20089;-53
2021/03/13 11:44:53;;;;;;;13.48;4.82;;;;;;;2.07;61.51;98494.25;10540121;28;20044;-50
2021/03/13 11:49:55;;;;;;;14.90;6.53;;;;;;;1.91;60.88;98493.63;10539871;28;20048;-50
2021/03/13 11:54:58;;;;;;;9.63;4.47;;;;;;;1.88;61.71;98486.94;10540126;28;20047;-50
2021/03/13 12:00:00;;;;;;;7.55;3.50;;;;;;;1.86;61.31;98511.28;10539602;28;20055;-53
2021/03/13 12:05:01;;;;;;;12.27;6.65;;;;;;;1.86;61.82;98491.38;10540052;28;20101;-51
2021/03/13 12:10:06;;;;;;;13.63;6.40;;;;;;;1.95;61.67;98495.09;10541568;28;20655;-50
2021/03/13 12:15:09;;;;;;;11.75;4.32;;;;;;;1.91;61.22;98501.41;10541160;28;20044;-52
2021/03/13 12:20:11;;;;;;;13.25;5.88;;;;;;;1.89;60.97;98511.06;10539965;28;20059;-49
2021/03/13 12:25:15;;;;;;;11.55;4.82;;;;;;;1.91;61.01;98509.19;10539710;28;20109;-50
2021/03/13 12:30:19;;;;;;;13.10;4.78;;;;;;;1.83;61.14;98510.56;10539154;28;20059;-50
2021/03/13 12:35:20;;;;;;;;;;;;;;;1.78;60.91;98504.03;10540484;28;20055;-50
2021/03/13 12:40:23;;;;;;;13.70;6.47;;;;;;;1.66;60.42;98510.84;10540243;28;19974;-50
2021/03/13 12:45:25;;;;;;;12.57;5.60;;;;;;;1.72;60.67;98515.63;10543907;28;20098;-50
2021/03/13 12:50:27;;;;;;;11.40;5.20;;;;;;;1.68;60.25;98516.78;10547626;28;20503;-50
2021/03/13 12:55:29;;;;;;;14.40;7.75;;;;;;;1.53;60.49;98520.41;10546886;28;20055;-50
2021/03/13 13:00:31;;;;;;;16.90;8.05;;;;;;;1.62;60.64;98517.19;10550474;28;20052;-51
2021/03/13 13:05:33;;;;;;;15.63;7.03;;;;;;;1.77;60.50;98518.75;10546594;28;20060;-49
2021/03/13 13:10:36;;;;;;;16.10;6.82;;;;;;;1.77;59.79;98518.75;10550256;28;20048;-50
2021/03/13 13:15:37;;;;;;;15.88;6.95;;;;;;;1.75;60.00;98515.41;10544951;28;20044;-53
2021/03/13 13:20:39;;;;;;;12.93;5.80;;;;;;;1.71;59.86;98513.97;10544564;28;20558;-52
2021/03/13 13:25:42;;;;;;;18.63;8.20;;;;;;;1.64;59.52;98510.16;10545064;28;20514;-50
2021/03/13 13:30:44;;;;;;;17.45;8.45;;;;;;;1.67;59.32;98509.13;10544800;28;20048;-50
2021/03/13 13:35:47;;;;;;;15.43;8.23;;;;;;;1.76;59.49;98508.50;10544743;28;20044;-53
2021/03/13 13:40:50;;;;;;;20.20;9.20;;;;;;;1.68;59.28;98508.19;10543835;28;20093;-52
2021/03/13 13:45:51;;;;;;;16.65;9.18;;;;;;;1.57;59.09;98501.13;10545030;28;20094;-50
2021/03/13 13:50:53;;;;;;;20.10;7.25;;;;;;;1.57;58.61;98498.53;10547603;28;20059;-50
2021/03/13 13:55:55;;;;;;;16.58;9.00;;;;;;;1.54;58.41;98499.59;10543376;28;20048;-53
2021/03/13 14:00:57;;;;;;;15.45;8.68;;;;;;;1.53;58.21;98499.69;10546510;28;20047;-52
2021/03/13 14:05:59;;;;;;;14.18;7.55;;;;;;;1.47;58.47;98497.50;10544330;28;20043;-53
2021/03/13 14:11:01;;;;;;;14.93;7.03;;;;;;;1.33;58.58;98494.09;10543427;28;20496;-52
2021/03/13 14:16:03;;;;;;;17.17;8.85;;;;;;;1.31;58.20;98495.13;10543031;28;20048;-51
2021/03/13 14:21:05;;;;;;;10.60;4.70;;;;;;;1.37;58.79;98494.69;10542744;28;20086;-54
2021/03/13 14:26:08;;;;;;;18.15;8.45;;;;;;;1.25;58.18;98488.56;10542104;28;20075;-49
2021/03/13 14:31:09;;;;;;;14.38;7.43;;;;;;;1.19;58.43;98468.28;10511084;28;20051;-52
2021/03/13 14:36:11;;;;;;;16.95;7.95;;;;;;;1.11;58.22;98486.91;10543735;28;20519;-53
2021/03/13 14:41:14;;;;;;;15.68;6.60;;;;;;;1.11;58.43;98478.31;10548779;28;20047;-54
2021/03/13 14:46:18;;;;;;;19.90;8.77;;;;;;;1.09;58.56;98480.19;10549542;28;20110;-52
2021/03/13 14:51:20;;;;;;;16.70;7.15;;;;;;;1.08;58.14;98483.69;10548271;28;20044;-52
2021/03/13 14:56:23;;;;;;;18.50;9.38;;;;;;;1.12;58.04;98504.09;10541789;28;20047;-50
2021/03/13 15:01:25;;;;;;;19.83;10.07;;;;;;;1.23;58.32;98490.47;10541111;28;20044;-49
2021/03/13 15:06:26;;;;;;;20.20;10.25;;;;;;;1.11;58.39;98484.31;10542322;28;20139;-50
2021/03/13 15:11:29;;;;;;;18.15;9.32;;;;;;;1.12;58.31;98490.31;10544212;28;20052;-55
2021/03/13 15:16:31;;;;;;;14.98;6.95;;;;;;;1.11;57.82;98494.69;10545062;28;20443;-49
2021/03/13 15:21:32;;;;;;;17.73;9.05;;;;;;;1.10;58.27;98498.19;10512761;28;20087;-50
2021/03/13 15:26:35;;;;;;;20.83;10.27;;;;;;;1.18;57.89;98499.44;10505354;28;20083;-50
2021/03/13 15:31:37;;;;;;;20.17;10.18;;;;;;;1.19;57.36;98494.16;10523023;28;20044;-51
2021/03/13 15:36:39;;;;;;;23.13;11.68;;;;;;;1.13;57.70;98486.81;10525624;28;20074;-50
2021/03/13 15:41:42;;;;;;;16.33;7.30;;;;;;;1.08;57.98;98499.22;10538897;28;20052;-54
2021/03/13 15:46:45;;;;;;;;;;;;;;;0.98;57.89;98498.16;10500874;28;20055;-49
2021/03/13 15:51:47;;;;;;;25.10;10.07;;;;;;;0.97;57.93;98512.03;10519123;28;19956;-51
2021/03/13 15:56:50;;;;;;;24.75;11.77;;;;;;;0.93;57.66;98515.75;10526043;28;20388;-52
2021/03/13 16:01:52;;;;;;;21.52;9.88;;;;;;;0.87;57.81;98507.44;10538342;28;20048;-53
2021/03/13 16:06:54;;;;;;;22.13;11.00;;;;;;;0.84;57.72;98512.00;10544489;28;20530;-52
2021/03/13 16:11:56;;;;;;;11.60;6.45;;;;;;;0.91;57.93;98505.50;10511960;28;20056;-50
2021/03/13 16:16:58;;;;;;;26.83;11.07;;;;;;;0.90;57.75;98517.59;10499279;28;20060;-52
2021/03/13 16:22:09;;;;;;;19.40;10.07;;;;;;;0.91;57.30;98511.50;10523829;28;20052;-53
2021/03/13 16:27:14;;;;;;;23.23;11.23;;;;;;;0.96;57.83;98525.91;10507148;28;20067;-49
2021/03/13 16:32:21;;;;;;;21.65;10.52;;;;;;;1.03;57.26;98520.22;10504180;28;20147;-53
2021/03/13 16:37:33;;;;;;;22.33;11.25;;;;;;;1.05;57.90;98522.72;10505566;28;20048;-52
2021/03/13 16:42:36;;;;;;;21.92;7.30;;;;;;;0.97;57.58;98517.22;10504106;28;20048;-54
2021/03/13 16:47:38;;;;;;;24.55;10.73;;;;;;;0.93;57.40;98520.94;10505248;28;20048;-54
2021/03/13 16:52:48;;;;;;;18.92;10.20;;;;;;;0.90;58.14;98515.00;10508288;28;20059;-53
2021/03/13 16:57:59;;;;;;;27.35;10.82;;;;;;;0.87;58.14;98522.16;10514581;28;20048;-51
2021/03/13 17:03:01;;;;;;;24.45;11.52;;;;;;;0.91;57.93;98524.44;10546309;28;20518;-50
2021/03/13 17:08:05;;;;;;;24.25;10.40;;;;;;;0.87;58.49;98522.97;10545099;28;20064;-52
2021/03/13 17:13:09;;;;;;;22.73;11.82;;;;;;;0.82;58.58;98524.19;10544957;28;20461;-50
2021/03/13 17:18:15;;;;;;;21.75;13.00;;;;;;;0.91;58.50;98529.59;10544663;28;20036;-52
2021/03/13 17:23:17;;;;;;;19.48;9.25;;;;;;;0.90;58.40;98538.31;10546362;28;20052;-52
2021/03/13 17:28:22;;;;;;;;;;;;;;;0.93;58.46;98526.09;10544463;28;20036;-50
2021/03/13 17:33:24;;;;;;;31.75;13.10;;;;;;;0.98;58.45;98540.38;10547001;28;20034;-52
2021/03/13 17:38:27;;;;;;;24.60;12.50;;;;;;;0.99;58.31;98538.66;10548594;28;20056;-52
2021/03/13 17:43:37;;;;;;;20.58;8.10;;;;;;;1.06;58.04;98543.31;10544165;28;20476;-50
2021/03/13 17:48:39;;;;;;;26.75;11.32;;;;;;;1.01;58.50;98539.34;10544941;28;20071;-50
2021/03/13 17:53:40;;;;;;;27.40;11.98;;;;;;;1.07;58.42;98544.97;10543689;28;20121;-53
2021/03/13 17:58:43;;;;;;;23.63;11.13;;;;;;;1.18;57.75;98533.94;10542615;28;20075;-53
2021/03/13 18:03:45;;;;;;;20.13;9.18;;;;;;;1.22;57.66;98539.72;10543573;28;20060;-50
2021/03/13 18:08:48;;;;;;;24.17;11.57;;;;;;;1.19;57.69;98530.41;10542514;28;20048;-50
2021/03/13 18:13:51;;;;;;;24.35;11.30;;;;;;;1.18;57.81;98536.50;10545156;28;20040;-53
2021/03/13 18:19:02;;;;;;;24.50;11.90;;;;;;;1.23;57.94;98529.28;10544424;28;20055;-62
2021/03/13 18:24:06;;;;;;;24.02;11.27;;;;;;;1.26;57.76;98534.25;10548058;28;20056;-57
2021/03/13 18:29:09;;;;;;;27.42;12.18;;;;;;;1.22;58.06;98527.59;10547852;28;20101;-56
2021/03/13 18:34:12;;;;;;;25.23;11.35;;;;;;;1.21;57.75;98530.31;10542816;28;20074;-56
2021/03/13 18:39:15;;;;;;;22.00;11.05;;;;;;;1.18;57.41;98526.16;10542817;28;20052;-50
2021/03/13 18:44:18;;;;;;;25.40;10.13;;;;;;;1.21;57.50;98525.97;10540598;28;20063;-49
2021/03/13 18:49:21;;;;;;;21.17;9.63;;;;;;;1.20;57.46;98534.66;10541000;28;20052;-53
2021/03/13 18:54:22;;;;;;;21.15;10.48;;;;;;;1.24;57.42;98519.75;10541017;28;20388;-50
2021/03/13 18:59:41;;;;;;;20.17;10.48;;;;;;;1.23;57.86;98512.91;10542315;28;20396;-57
2021/03/13 19:04:45;;;;;;;21.35;9.77;;;;;;;1.23;58.02;98513.75;10541161;28;20497;-53
2021/03/13 19:09:47;;;;;;;;;;;;;;;1.28;57.66;98516.84;10541279;28;20056;-50
2021/03/13 19:14:50;;;;;;;14.88;6.95;;;;;;;1.24;57.70;98515.41;10540747;28;20262;-52
2021/03/13 19:19:51;;;;;;;27.30;9.82;;;;;;;1.22;57.86;98512.06;10524493;28;20518;-50
2021/03/13 19:24:54;;;;;;;21.27;10.30;;;;;;;1.21;57.87;98515.59;10539442;28;20048;-52
2021/03/13 19:30:17;;;;;;;22.13;8.85;;;;;;;1.15;57.74;98516.84;10540649;28;20048;-53
2021/03/13 19:35:19;;;;;;;26.07;10.67;;;;;;;1.20;57.94;98505.34;10540870;28;20063;-54
2021/03/13 19:40:21;;;;;;;25.20;12.35;;;;;;;1.20;58.03;98506.19;10539841;28;20298;-53
2021/03/13 19:45:23;;;;;;;16.80;8.70;;;;;;;1.25;57.89;98501.53;10540257;28;20055;-51
2021/03/13 19:50:26;;;;;;;17.25;7.72;;;;;;;1.25;57.82;98498.94;10539471;28;20087;-53
2021/03/13 19:55:28;;;;;;;25.20;12.02;;;;;;;1.27;57.82;98491.91;10552341;28;20059;-51
2021/03/13 20:00:30;;;;;;;27.42;12.60;;;;;;;1.35;57.51;98488.78;10554250;28;20051;-52
2021/03/13 20:05:32;;;;;;;19.23;9.48;;;;;;;1.31;57.40;98490.75;10549636;28;20067;-50
2021/03/13 20:10:35;;;;;;;23.52;9.93;;;;;;;1.35;57.37;98481.03;10548668;28;20237;-52
2021/03/13 20:15:38;;;;;;;26.77;12.85;;;;;;;1.39;57.26;98487.69;10548281;28;20044;-53
2021/03/13 20:20:40;;;;;;;26.90;11.93;;;;;;;1.46;57.25;98495.84;10547711;28;20063;-55
2021/03/13 20:25:42;;;;;;;19.85;8.63;;;;;;;1.45;57.60;98491.59;10548924;28;20330;-53
2021/03/13 20:30:45;;;;;;;25.42;9.85;;;;;;;1.45;57.33;98489.84;10549063;28;20067;-50
2021/03/13 20:35:47;;;;;;;24.65;10.30;;;;;;;1.44;57.47;98484.75;10547247;28;20143;-53
2021/03/13 20:40:48;;;;;;;22.80;10.52;;;;;;;1.40;57.57;98483.31;10547033;28;20044;-52
2021/03/13 20:45:51;;;;;;;23.88;10.25;;;;;;;1.38;57.70;98480.81;10546256;28;20040;-55
2021/03/13 20:50:53;;;;;;;23.33;10.73;;;;;;;1.38;57.69;98486.81;10546330;28;20067;-53
2021/03/13 20:55:54;;;;;;;17.50;8.13;;;;;;;1.43;57.95;98477.94;10546278;28;20048;-50
2021/03/13 21:00:57;;;;;;;25.83;10.02;;;;;;;1.40;57.94;98472.97;10546481;28;20058;-53
2021/03/13 21:05:58;;;;;;;19.45;8.57;;;;;;;1.44;57.71;98475.22;10544594;28;20040;-50
2021/03/13 21:11:00;;;;;;;25.40;11.23;;;;;;;1.50;58.09;98479.16;10545686;28;20052;-53
2021/03/13 21:16:03;;;;;;;27.95;10.52;;;;;;;1.56;57.87;98478.75;10545294;28;20040;-49
2021/03/13 21:21:04;;;;;;;25.02;13.25;;;;;;;1.69;57.23;98481.34;10544009;28;20410;-58
2021/03/13 21:26:06;;;;;;;17.55;8.00;;;;;;;1.78;57.39;98478.13;10545170;28;20044;-50
2021/03/13 21:31:09;;;;;;;23.05;10.63;;;;;;;1.74;57.58;98490.44;10545301;28;20063;-52
2021/03/13 21:36:10;;;;;;;25.10;10.40;;;;;;;1.81;57.33;98486.50;10545042;28;20385;-50
2021/03/13 21:41:12;;;;;;;24.40;10.52;;;;;;;1.84;57.39;98485.47;10544935;28;20142;-53
2021/03/13 21:46:14;;;;;;;22.80;9.63;;;;;;;1.87;57.13;98487.03;10544250;28;20055;-53
2021/03/13 21:51:16;;;;;;;24.60;11.27;;;;;;;1.81;57.33;98478.72;10544174;28;20043;-51
2021/03/13 21:56:18;;;;;;;22.48;10.73;;;;;;;1.79;57.06;98479.78;10544159;28;20058;-54
2021/03/13 22:01:21;;;;;;;31.13;15.82;;;;;;;1.76;57.25;98470.47;10548667;28;20043;-50
2021/03/13 22:06:23;;;;;;;24.02;10.80;;;;;;;1.81;57.37;98473.53;10549903;28;20051;-51
2021/03/13 22:11:24;;;;;;;26.67;11.15;;;;;;;1.75;57.82;98479.16;10549346;28;20055;-52
2021/03/13 22:16:27;;;;;;;24.95;11.80;;;;;;;1.79;57.78;98464.25;10548372;28;20048;-58
2021/03/13 22:21:28;;;;;;;22.92;10.90;;;;;;;1.80;57.79;98461.53;10546683;28;20101;-50
2021/03/13 22:26:30;;;;;;;18.83;9.00;;;;;;;1.81;58.11;98464.94;10542807;28;20044;-50
2021/03/13 22:31:33;;;;;;;20.48;9.07;;;;;;;1.88;57.76;98454.97;10542108;28;20114;-50
2021/03/13 22:36:35;;;;;;;26.77;11.57;;;;;;;1.96;57.61;98460.47;10543096;28;20052;-50
2021/03/13 22:41:36;;;;;;;22.85;9.25;;;;;;;2.00;57.61;98457.56;10544066;28;20070;-53
2021/03/13 22:46:39;;;;;;;22.20;11.57;;;;;;;2.00;57.56;98454.13;10542071;28;20048;-54
2021/03/13 22:51:40;;;;;;;21.67;8.85;;;;;;;1.99;57.60;98447.28;10541654;28;20426;-50
2021/03/13 22:56:42;;;;;;;23.85;9.82;;;;;;;2.01;57.72;98443.66;10541717;28;20492;-53
2021/03/13 23:01:44;;;;;;;26.17;10.90;;;;;;;2.00;57.41;98436.84;10542033;28;20860;-53
2021/03/13 23:06:46;;;;;;;25.02;8.55;;;;;;;1.97;57.72;98436.19;10541012;28;20396;-50
2021/03/13 23:11:49;;;;;;;24.73;11.45;;;;;;;1.91;57.67;98427.13;10541760;28;20051;-52
2021/03/13 23:16:52;;;;;;;23.17;9.50;;;;;;;2.02;58.18;98421.16;10540248;28;20155;-51
2021/03/13 23:21:53;;;;;;;21.25;8.07;;;;;;;2.05;58.16;98415.75;10533276;28;20052;-51
2021/03/13 23:26:55;;;;;;;25.75;10.95;;;;;;;1.97;58.27;98407.69;10497755;28;20139;-51
2021/03/13 23:31:58;;;;;;;20.98;9.68;;;;;;;2.00;57.87;98394.50;10499101;28;20047;-53